Time;durP1;ratioP1;P1;durP2;ratioP2;P2;SDS_P1;SDS_P2;PMS_P1;PMS_P2;Temp;Humidity;BMP_temperature;BMP_pressure;BME280_temperature;BME280_humidity;BME280_pressure;Samples;Min_cycle;Max_cycle;Signal;HPM_P1;HPM_P2
2021/03/16 12:50:44;;;;;;;85.55;81.47;;;;;;;;;;5090847;28;20582;-76
2021/03/16 12:53:10;;;;;;;78.70;75.22;;;;;;;;;;5090827;28;20175;-77
2021/03/16 12:55:36;;;;;;;80.28;76.78;;;;;;;;;;5090664;28;20221;-72
2021/03/16 12:58:02;;;;;;;75.88;72.30;;;;;;;;;;5090922;28;20164;-72
2021/03/16 13:00:30;;;;;;;60.22;57.30;;;;;;;;;;5090756;28;20164;-72
2021/03/16 13:02:56;;;;;;;55.20;52.90;;;;;;;;;;5090626;28;20652;-74
2021/03/16 13:05:23;;;;;;;50.60;48.60;;;;;;;;;;5090648;28;20168;-72
2021/03/16 13:07:49;;;;;;;52.75;50.63;;;;;;;;;;5090499;28;20637;-73
2021/03/16 13:10:15;;;;;;;51.45;48.80;;;;;;;;;;5089060;28;20305;-73
2021/03/16 13:12:40;;;;;;;49.15;47.15;;;;;;;;;;5090544;28;20241;-73
2021/03/16 13:15:09;;;;;;;46.30;44.30;;;;;;;;;;5090387;28;20168;-73
2021/03/16 13:17:35;;;;;;;44.63;42.85;;;;;;;;;;5090438;28;20226;-73
2021/03/16 13:20:01;;;;;;;43.83;42.13;;;;;;;;;;5089027;28;20176;-73
2021/03/16 13:22:27;;;;;;;43.70;42.00;;;;;;;;;;5090252;28;20168;-72
2021/03/16 13:24:53;;;;;;;45.72;43.92;;;;;;;;;;5090206;28;20191;-74
2021/03/16 13:27:19;;;;;;;50.13;48.08;;;;;;;;;;5090171;28;20166;-73
2021/03/16 13:29:45;;;;;;;50.22;48.13;;;;;;;;;;5090033;28;20724;-73
2021/03/16 13:32:12;;;;;;;48.83;46.83;;;;;;;;;;5088814;28;20168;-73
2021/03/16 13:34:39;;;;;;;57.03;54.53;;;;;;;;;;5088779;28;20179;-72
2021/03/16 13:37:08;;;;;;;63.45;60.55;;;;;;;;;;5090002;28;20243;-72
2021/03/16 13:39:34;;;;;;;74.28;71.10;;;;;;;;;;5088700;28;20263;-72
2021/03/16 13:42:00;;;;;;;88.03;84.15;;;;;;;;;;5089928;28;20178;-72
2021/03/16 14:14:30;;;;;;;70.57;67.55;;;;;;;;;;5090772;27;20552;-73
2021/03/16 14:16:56;;;;;;;81.10;77.28;;;;;;;;;;5090723;28;20633;-72
2021/03/16 14:19:22;;;;;;;91.40;87.30;;;;;;;;;;5090785;28;20175;-73
2021/03/16 14:21:49;;;;;;;101.13;96.68;;;;;;;;;;5090697;28;20167;-73
2021/03/16 14:24:15;;;;;;;114.72;109.60;;;;;;;;;;5090695;28;20198;-72
2021/03/16 14:26:41;;;;;;;134.65;128.55;;;;;;;;;;5090666;28;20242;-72
2021/03/16 14:29:07;;;;;;;132.63;126.50;;;;;;;;;;5090699;28;20168;-72
2021/03/16 14:31:33;;;;;;;132.00;126.05;;;;;;;;;;5089355;28;20172;-73
2021/03/16 14:34:01;;;;;;;116.60;111.18;;;;;;;;;;5090698;28;20195;-73
2021/03/16 14:36:28;;;;;;;111.90;106.95;;;;;;;;;;5090485;28;20164;-72
2021/03/16 14:38:54;;;;;;;110.38;105.47;;;;;;;;;;5090353;28;20190;-73
2021/03/16 14:41:19;;;;;;;114.05;108.93;;;;;;;;;;5089014;28;20172;-73
2021/03/16 14:43:45;;;;;;;102.35;97.82;;;;;;;;;;5090279;28;20168;-72
2021/03/16 14:46:11;;;;;;;104.75;100.13;;;;;;;;;;5090311;28;20164;-73
2021/03/16 14:48:37;;;;;;;97.95;93.65;;;;;;;;;;5090225;28;20626;-73
2021/03/16 14:51:04;;;;;;;87.20;83.28;;;;;;;;;;5090042;28;20226;-72
2021/03/16 14:53:29;;;;;;;86.43;82.68;;;;;;;;;;5090014;28;20253;-72
2021/03/16 14:55:55;;;;;;;93.72;89.40;;;;;;;;;;5090060;28;20172;-73
2021/03/16 14:58:21;;;;;;;95.57;91.13;;;;;;;;;;5089961;28;20168;-72
2021/03/16 15:00:47;;;;;;;77.80;74.40;;;;;;;;;;5090014;28;20553;-72
2021/03/16 15:03:14;;;;;;;64.22;61.42;;;;;;;;;;5089973;28;20175;-73
2021/03/16 15:05:41;;;;;;;66.90;63.75;;;;;;;;;;5089853;28;20630;-72
2021/03/16 15:08:07;;;;;;;63.65;60.72;;;;;;;;;;5089893;28;20175;-77
2021/03/16 15:10:33;;;;;;;72.10;69.00;;;;;;;;;;5088479;28;20176;-81
2021/03/16 15:12:59;;;;;;;73.35;70.15;;;;;;;;;;5089665;28;20303;-83
2021/03/16 15:15:28;;;;;;;80.18;76.65;;;;;;;;;;5089979;28;20175;-76
2021/03/16 15:17:54;;;;;;;90.95;86.97;;;;;;;;;;5088565;28;20198;-76
2021/03/16 15:20:24;;;;;;;97.40;92.90;;;;;;;;;;5089826;28;20529;-76
2021/03/16 15:22:50;;;;;;;102.10;97.25;;;;;;;;;;5089613;28;20175;-76
2021/03/16 15:25:17;;;;;;;117.13;111.80;;;;;;;;;;5079535;28;20172;-76
2021/03/16 16:46:35;;;;;;;76.90;73.47;;;;;;;;;;5090667;28;20552;-72
2021/03/16 16:49:01;;;;;;;90.07;85.45;;;;;;;;;;5090501;28;20176;-72
2021/03/16 16:51:27;;;;;;;94.53;90.05;;;;;;;;;;5089354;28;20175;-72
2021/03/16 16:53:54;;;;;;;98.47;94.10;;;;;;;;;;5090559;28;20172;-73
